sensor_id;sensor_type;location;lat;lon;timestamp;pressure;altitude;pressure_sealevel;temperature;humidity
19624;BME280;9959;49.798;9.928;2024-03-08T00:00:13;99841.16;;;1.89;73.19
19624;BME280;9959;49.798;9.928;2024-03-08T00:02:46;99845.16;;;1.75;73.65
19624;BME280;9959;49.798;9.928;2024-03-08T00:05:14;99841.59;;;1.84;73.85
19624;BME280;9959;49.798;9.928;2024-03-08T00:07:42;99845.25;;;1.83;73.71
19624;BME280;9959;49.798;9.928;2024-03-08T00:10:11;99841.56;;;1.66;74.08
19624;BME280;9959;49.798;9.928;2024-03-08T00:12:42;99837.03;;;1.77;74.20
19624;BME280;9959;49.798;9.928;2024-03-08T00:15:16;99833.09;;;1.81;74.39
19624;BME280;9959;49.798;9.928;2024-03-08T00:17:46;99834.75;;;1.82;74.14
19624;BME280;9959;49.798;9.928;2024-03-08T00:20:15;99833.59;;;1.66;74.68
19624;BME280;9959;49.798;9.928;2024-03-08T00:22:46;99837.25;;;1.65;75.00
19624;BME280;9959;49.798;9.928;2024-03-08T00:25:13;99840.97;;;1.55;75.44
19624;BME280;9959;49.798;9.928;2024-03-08T00:27:40;99837.06;;;1.49;75.91
19624;BME280;9959;49.798;9.928;2024-03-08T00:30:10;99835.09;;;1.51;76.06
19624;BME280;9959;49.798;9.928;2024-03-08T00:32:40;99833.25;;;1.61;75.84
19624;BME280;9959;49.798;9.928;2024-03-08T00:35:08;99829.56;;;1.45;76.23
19624;BME280;9959;49.798;9.928;2024-03-08T00:37:35;99833.97;;;1.36;76.92
19624;BME280;9959;49.798;9.928;2024-03-08T00:40:02;99827.03;;;1.43;76.70
19624;BME280;9959;49.798;9.928;2024-03-08T00:42:29;99820.00;;;1.34;77.14
19624;BME280;9959;49.798;9.928;2024-03-08T00:44:56;99820.16;;;1.32;77.97
19624;BME280;9959;49.798;9.928;2024-03-08T00:47:25;99822.50;;;1.35;77.81
19624;BME280;9959;49.798;9.928;2024-03-08T00:49:52;99821.56;;;1.27;78.08
19624;BME280;9959;49.798;9.928;2024-03-08T00:52:20;99815.81;;;1.31;78.61
19624;BME280;9959;49.798;9.928;2024-03-08T00:54:47;99812.41;;;1.39;78.27
19624;BME280;9959;49.798;9.928;2024-03-08T00:57:13;99819.09;;;1.16;78.73
19624;BME280;9959;49.798;9.928;2024-03-08T00:59:41;99810.53;;;0.94;80.37
19624;BME280;9959;49.798;9.928;2024-03-08T01:02:08;99807.19;;;1.02;80.63
19624;BME280;9959;49.798;9.928;2024-03-08T01:04:35;99806.03;;;1.05;80.26
19624;BME280;9959;49.798;9.928;2024-03-08T01:07:02;99796.19;;;1.15;80.21
19624;BME280;9959;49.798;9.928;2024-03-08T01:09:30;99799.25;;;1.20;80.04
19624;BME280;9959;49.798;9.928;2024-03-08T01:11:57;99787.75;;;1.29;79.95
19624;BME280;9959;49.798;9.928;2024-03-08T01:14:24;99782.31;;;1.30;79.58
19624;BME280;9959;49.798;9.928;2024-03-08T01:16:55;99789.00;;;1.07;80.72
19624;BME280;9959;49.798;9.928;2024-03-08T01:19:23;99786.97;;;1.19;81.04
19624;BME280;9959;49.798;9.928;2024-03-08T01:21:51;99782.78;;;1.16;81.11
19624;BME280;9959;49.798;9.928;2024-03-08T01:24:18;99774.56;;;1.10;81.28
19624;BME280;9959;49.798;9.928;2024-03-08T01:26:45;99784.31;;;1.19;80.79
19624;BME280;9959;49.798;9.928;2024-03-08T01:29:12;99779.22;;;1.08;81.52
19624;BME280;9959;49.798;9.928;2024-03-08T01:31:39;99776.19;;;1.02;82.04
19624;BME280;9959;49.798;9.928;2024-03-08T01:34:07;99765.63;;;0.83;82.80
19624;BME280;9959;49.798;9.928;2024-03-08T01:36:34;99763.38;;;0.88;82.72
19624;BME280;9959;49.798;9.928;2024-03-08T01:39:01;99760.84;;;0.96;82.81
19624;BME280;9959;49.798;9.928;2024-03-08T01:41:28;99760.88;;;0.87;82.96
19624;BME280;9959;49.798;9.928;2024-03-08T01:43:56;99757.78;;;0.91;83.51
19624;BME280;9959;49.798;9.928;2024-03-08T01:46:23;99755.69;;;0.67;83.89
19624;BME280;9959;49.798;9.928;2024-03-08T01:48:56;99756.81;;;0.55;85.41
19624;BME280;9959;49.798;9.928;2024-03-08T01:51:23;99762.47;;;0.43;86.06
19624;BME280;9959;49.798;9.928;2024-03-08T01:53:51;99748.91;;;0.83;85.78
19624;BME280;9959;49.798;9.928;2024-03-08T01:56:18;99747.06;;;0.83;84.78
19624;BME280;9959;49.798;9.928;2024-03-08T01:58:45;99746.41;;;0.81;84.77
19624;BME280;9959;49.798;9.928;2024-03-08T02:01:15;99732.50;;;0.70;85.52
19624;BME280;9959;49.798;9.928;2024-03-08T02:03:44;99746.19;;;0.65;85.95
19624;BME280;9959;49.798;9.928;2024-03-08T02:06:12;99736.97;;;0.69;86.01
19624;BME280;9959;49.798;9.928;2024-03-08T02:08:45;99732.00;;;0.56;86.44
19624;BME280;9959;49.798;9.928;2024-03-08T02:11:13;99726.38;;;0.69;87.02
19624;BME280;9959;49.798;9.928;2024-03-08T02:13:41;99721.34;;;0.66;86.71
19624;BME280;9959;49.798;9.928;2024-03-08T02:16:08;99723.31;;;0.64;86.82
19624;BME280;9959;49.798;9.928;2024-03-08T02:18:36;99726.66;;;0.66;86.81
19624;BME280;9959;49.798;9.928;2024-03-08T02:21:05;99722.34;;;0.65;86.47
19624;BME280;9959;49.798;9.928;2024-03-08T02:23:33;99722.84;;;0.51;87.46
19624;BME280;9959;49.798;9.928;2024-03-08T02:26:01;99723.84;;;0.40;88.44
19624;BME280;9959;49.798;9.928;2024-03-08T02:28:28;99722.84;;;0.51;88.18
19624;BME280;9959;49.798;9.928;2024-03-08T02:30:56;99715.94;;;0.58;87.66
19624;BME280;9959;49.798;9.928;2024-03-08T02:33:25;99721.16;;;0.50;87.94
19624;BME280;9959;49.798;9.928;2024-03-08T02:35:53;99709.94;;;0.56;88.36
19624;BME280;9959;49.798;9.928;2024-03-08T02:38:22;99707.50;;;0.45;88.39
19624;BME280;9959;49.798;9.928;2024-03-08T02:40:51;99710.03;;;0.37;89.19
19624;BME280;9959;49.798;9.928;2024-03-08T02:43:19;99699.16;;;0.40;89.28
19624;BME280;9959;49.798;9.928;2024-03-08T02:45:47;99704.72;;;0.46;88.78
19624;BME280;9959;49.798;9.928;2024-03-08T02:48:15;99697.75;;;0.45;89.20
19624;BME280;9959;49.798;9.928;2024-03-08T02:50:43;99700.38;;;0.45;89.49
19624;BME280;9959;49.798;9.928;2024-03-08T02:53:13;99693.41;;;0.44;89.56
19624;BME280;9959;49.798;9.928;2024-03-08T02:55:41;99707.44;;;0.27;89.75
19624;BME280;9959;49.798;9.928;2024-03-08T02:58:09;99696.09;;;0.34;90.59
19624;BME280;9959;49.798;9.928;2024-03-08T03:00:38;99697.78;;;0.36;91.17
19624;BME280;9959;49.798;9.928;2024-03-08T03:03:08;99689.66;;;0.47;90.41
19624;BME280;9959;49.798;9.928;2024-03-08T03:05:35;99693.69;;;0.51;90.25
19624;BME280;9959;49.798;9.928;2024-03-08T03:08:03;99686.28;;;0.54;90.10
19624;BME280;9959;49.798;9.928;2024-03-08T03:10:37;99687.69;;;0.49;90.09
19624;BME280;9959;49.798;9.928;2024-03-08T03:13:04;99683.75;;;0.53;89.92
19624;BME280;9959;49.798;9.928;2024-03-08T03:15:32;99682.78;;;0.54;89.91
19624;BME280;9959;49.798;9.928;2024-03-08T03:18:01;99678.16;;;0.56;89.77
19624;BME280;9959;49.798;9.928;2024-03-08T03:20:28;99674.03;;;0.44;89.95
19624;BME280;9959;49.798;9.928;2024-03-08T03:23:16;99671.16;;;0.55;89.62
19624;BME280;9959;49.798;9.928;2024-03-08T03:25:47;99662.59;;;0.43;90.10
19624;BME280;9959;49.798;9.928;2024-03-08T03:28:14;99662.88;;;0.40;90.12
19624;BME280;9959;49.798;9.928;2024-03-08T03:30:46;99660.28;;;0.30;91.25
19624;BME280;9959;49.798;9.928;2024-03-08T03:33:13;99667.09;;;0.33;91.54
19624;BME280;9959;49.798;9.928;2024-03-08T03:35:43;99667.94;;;0.33;91.66
19624;BME280;9959;49.798;9.928;2024-03-08T03:38:11;99657.34;;;0.33;91.09
19624;BME280;9959;49.798;9.928;2024-03-08T03:40:39;99665.66;;;0.11;92.49
19624;BME280;9959;49.798;9.928;2024-03-08T03:43:09;99665.47;;;0.22;92.24
19624;BME280;9959;49.798;9.928;2024-03-08T03:45:39;99666.59;;;0.20;92.28
19624;BME280;9959;49.798;9.928;2024-03-08T03:48:08;99672.34;;;0.15;92.54
19624;BME280;9959;49.798;9.928;2024-03-08T03:50:37;99666.34;;;0.13;92.90
19624;BME280;9959;49.798;9.928;2024-03-08T03:53:06;99665.38;;;0.14;93.43
19624;BME280;9959;49.798;9.928;2024-03-08T03:55:36;99664.13;;;0.09;93.68
19624;BME280;9959;49.798;9.928;2024-03-08T03:58:07;99658.81;;;0.09;93.89
19624;BME280;9959;49.798;9.928;2024-03-08T04:00:34;99654.25;;;0.01;94.55
19624;BME280;9959;49.798;9.928;2024-03-08T04:03:01;99654.16;;;-0.17;94.79
19624;BME280;9959;49.798;9.928;2024-03-08T04:05:28;99652.19;;;-0.05;95.35
19624;BME280;9959;49.798;9.928;2024-03-08T04:07:55;99639.88;;;0.04;94.65
19624;BME280;9959;49.798;9.928;2024-03-08T04:10:22;99638.75;;;0.06;94.76
19624;BME280;9959;49.798;9.928;2024-03-08T04:12:49;99642.63;;;0.21;94.37
19624;BME280;9959;49.798;9.928;2024-03-08T04:15:16;99647.00;;;0.03;94.28
19624;BME280;9959;49.798;9.928;2024-03-08T04:17:43;99645.22;;;-0.06;95.19
19624;BME280;9959;49.798;9.928;2024-03-08T04:20:13;99643.84;;;-0.10;95.34
19624;BME280;9959;49.798;9.928;2024-03-08T04:22:41;99644.41;;;-0.16;95.27
19624;BME280;9959;49.798;9.928;2024-03-08T04:25:10;99642.19;;;-0.11;96.83
19624;BME280;9959;49.798;9.928;2024-03-08T04:27:36;99645.63;;;-0.01;95.89
19624;BME280;9959;49.798;9.928;2024-03-08T04:30:04;99640.22;;;-0.09;96.19
19624;BME280;9959;49.798;9.928;2024-03-08T04:32:35;99640.22;;;-0.09;96.01
19624;BME280;9959;49.798;9.928;2024-03-08T04:35:05;99634.63;;;-0.06;96.17
19624;BME280;9959;49.798;9.928;2024-03-08T04:37:32;99638.84;;;-0.13;96.03
19624;BME280;9959;49.798;9.928;2024-03-08T04:39:59;99641.88;;;-0.08;96.65
19624;BME280;9959;49.798;9.928;2024-03-08T04:42:29;99636.66;;;-0.27;97.13
19624;BME280;9959;49.798;9.928;2024-03-08T04:44:59;99625.78;;;-0.34;98.03
19624;BME280;9959;49.798;9.928;2024-03-08T04:47:27;99627.59;;;-0.35;98.30
19624;BME280;9959;49.798;9.928;2024-03-08T04:49:54;99627.34;;;-0.51;99.35
19624;BME280;9959;49.798;9.928;2024-03-08T04:52:23;99633.06;;;-0.46;99.67
19624;BME280;9959;49.798;9.928;2024-03-08T04:54:50;99636.34;;;-0.24;98.50
19624;BME280;9959;49.798;9.928;2024-03-08T04:57:17;99633.31;;;-0.29;98.14
19624;BME280;9959;49.798;9.928;2024-03-08T04:59:46;99631.09;;;-0.44;98.66
19624;BME280;9959;49.798;9.928;2024-03-08T05:02:13;99630.94;;;-0.32;98.85
19624;BME280;9959;49.798;9.928;2024-03-08T05:04:40;99631.66;;;-0.40;99.49
19624;BME280;9959;49.798;9.928;2024-03-08T05:07:07;99635.56;;;-0.35;99.08
19624;BME280;9959;49.798;9.928;2024-03-08T05:09:34;99635.84;;;-0.47;99.77
19624;BME280;9959;49.798;9.928;2024-03-08T05:12:03;99637.66;;;-0.48;100.00
19624;BME280;9959;49.798;9.928;2024-03-08T05:14:30;99630.66;;;-0.29;99.75
19624;BME280;9959;49.798;9.928;2024-03-08T05:16:57;99634.72;;;-0.35;100.00
19624;BME280;9959;49.798;9.928;2024-03-08T05:19:24;99631.22;;;-0.36;99.96
19624;BME280;9959;49.798;9.928;2024-03-08T05:21:51;99629.28;;;-0.33;100.00
19624;BME280;9959;49.798;9.928;2024-03-08T05:24:18;99631.50;;;-0.39;100.00
19624;BME280;9959;49.798;9.928;2024-03-08T05:26:46;99625.75;;;-0.24;100.00
19624;BME280;9959;49.798;9.928;2024-03-08T05:29:13;99622.72;;;-0.29;99.18
19624;BME280;9959;49.798;9.928;2024-03-08T05:31:51;99625.19;;;-0.18;99.33
19624;BME280;9959;49.798;9.928;2024-03-08T05:34:22;99613.44;;;-0.06;98.75
19624;BME280;9959;49.798;9.928;2024-03-08T05:36:49;99616.78;;;-0.04;97.69
19624;BME280;9959;49.798;9.928;2024-03-08T05:39:18;99615.63;;;0.08;97.22
19624;BME280;9959;49.798;9.928;2024-03-08T05:41:46;99609.81;;;-0.05;97.26
19624;BME280;9959;49.798;9.928;2024-03-08T05:44:13;99606.91;;;-0.12;97.86
19624;BME280;9959;49.798;9.928;2024-03-08T05:46:40;99604.69;;;-0.16;98.34
19624;BME280;9959;49.798;9.928;2024-03-08T05:49:07;99596.16;;;-0.01;97.52
19624;BME280;9959;49.798;9.928;2024-03-08T05:51:38;99606.84;;;0.08;96.90
19624;BME280;9959;49.798;9.928;2024-03-08T05:54:10;99605.31;;;0.05;96.66
19624;BME280;9959;49.798;9.928;2024-03-08T05:56:40;99604.59;;;0.13;96.64
19624;BME280;9959;49.798;9.928;2024-03-08T05:59:12;99598.59;;;0.11;96.59
19624;BME280;9959;49.798;9.928;2024-03-08T06:01:39;99592.56;;;0.18;96.49
19624;BME280;9959;49.798;9.928;2024-03-08T06:04:09;99597.38;;;0.32;95.38
19624;BME280;9959;49.798;9.928;2024-03-08T06:06:38;99594.03;;;0.30;94.77
19624;BME280;9959;49.798;9.928;2024-03-08T06:09:07;99598.16;;;0.43;94.31
19624;BME280;9959;49.798;9.928;2024-03-08T06:11:39;99596.94;;;0.37;94.44
19624;BME280;9959;49.798;9.928;2024-03-08T06:14:06;99593.69;;;0.43;94.23
19624;BME280;9959;49.798;9.928;2024-03-08T06:16:33;99598.25;;;0.51;93.78
19624;BME280;9959;49.798;9.928;2024-03-08T06:19:00;99587.81;;;0.49;93.56
19624;BME280;9959;49.798;9.928;2024-03-08T06:21:30;99600.63;;;0.54;93.61
19624;BME280;9959;49.798;9.928;2024-03-08T06:23:57;99589.94;;;0.63;92.69
19624;BME280;9959;49.798;9.928;2024-03-08T06:26:24;99591.34;;;0.58;92.53
19624;BME280;9959;49.798;9.928;2024-03-08T06:28:56;99587.66;;;0.68;92.26
19624;BME280;9959;49.798;9.928;2024-03-08T06:31:23;99594.78;;;0.68;91.58
19624;BME280;9959;49.798;9.928;2024-03-08T06:33:51;99590.19;;;0.70;91.18
19624;BME280;9959;49.798;9.928;2024-03-08T06:36:18;99595.41;;;0.80;91.22
19624;BME280;9959;49.798;9.928;2024-03-08T06:38:45;99597.25;;;0.79;90.84
19624;BME280;9959;49.798;9.928;2024-03-08T06:41:13;99598.81;;;0.90;90.65
19624;BME280;9959;49.798;9.928;2024-03-08T06:43:47;99600.41;;;1.00;90.11
19624;BME280;9959;49.798;9.928;2024-03-08T06:46:15;99598.75;;;0.99;89.90
19624;BME280;9959;49.798;9.928;2024-03-08T06:48:43;99595.88;;;0.93;89.63
19624;BME280;9959;49.798;9.928;2024-03-08T06:51:10;99600.31;;;1.10;89.50
19624;BME280;9959;49.798;9.928;2024-03-08T06:53:38;99598.19;;;1.14;89.26
19624;BME280;9959;49.798;9.928;2024-03-08T06:56:07;99603.72;;;1.20;88.60
19624;BME280;9959;49.798;9.928;2024-03-08T06:58:35;99596.69;;;1.29;88.70
19624;BME280;9959;49.798;9.928;2024-03-08T07:01:02;99592.09;;;1.39;87.83
19624;BME280;9959;49.798;9.928;2024-03-08T07:03:31;99591.00;;;1.24;88.26
19624;BME280;9959;49.798;9.928;2024-03-08T07:05:59;99589.56;;;1.55;87.10
19624;BME280;9959;49.798;9.928;2024-03-08T07:08:30;99582.97;;;1.59;86.62
19624;BME280;9959;49.798;9.928;2024-03-08T07:10:57;99587.63;;;1.65;86.01
19624;BME280;9959;49.798;9.928;2024-03-08T07:13:26;99582.53;;;1.72;86.15
19624;BME280;9959;49.798;9.928;2024-03-08T07:15:56;99590.47;;;1.90;85.42
19624;BME280;9959;49.798;9.928;2024-03-08T07:18:23;99576.69;;;1.94;84.33
19624;BME280;9959;49.798;9.928;2024-03-08T07:20:51;99588.59;;;2.24;84.11
19624;BME280;9959;49.798;9.928;2024-03-08T07:23:18;99577.97;;;2.24;82.79
19624;BME280;9959;49.798;9.928;2024-03-08T07:26:05;99577.88;;;2.00;83.22
19624;BME280;9959;49.798;9.928;2024-03-08T07:28:32;99575.22;;;2.00;83.39
19624;BME280;9959;49.798;9.928;2024-03-08T07:30:59;99572.97;;;2.21;83.28
19624;BME280;9959;49.798;9.928;2024-03-08T07:33:44;99569.72;;;2.35;82.19
19624;BME280;9959;49.798;9.928;2024-03-08T07:36:11;99568.91;;;2.35;81.97
19624;BME280;9959;49.798;9.928;2024-03-08T07:38:38;99572.38;;;2.35;81.88
19624;BME280;9959;49.798;9.928;2024-03-08T07:41:06;99572.06;;;2.47;81.60
19624;BME280;9959;49.798;9.928;2024-03-08T07:43:33;99564.44;;;2.52;81.37
19624;BME280;9959;49.798;9.928;2024-03-08T07:46:00;99566.16;;;2.69;80.54
19624;BME280;9959;49.798;9.928;2024-03-08T07:48:27;99563.34;;;2.70;80.04
19624;BME280;9959;49.798;9.928;2024-03-08T07:50:55;99554.53;;;2.86;79.71
19624;BME280;9959;49.798;9.928;2024-03-08T07:53:22;99546.56;;;3.02;78.94
19624;BME280;9959;49.798;9.928;2024-03-08T07:55:51;99544.91;;;3.18;77.91
19624;BME280;9959;49.798;9.928;2024-03-08T07:58:18;99541.72;;;3.06;78.44
19624;BME280;9959;49.798;9.928;2024-03-08T08:00:45;99543.56;;;3.14;78.09
19624;BME280;9959;49.798;9.928;2024-03-08T08:03:12;99539.22;;;3.29;77.83
19624;BME280;9959;49.798;9.928;2024-03-08T08:05:40;99534.75;;;3.21;78.10
19624;BME280;9959;49.798;9.928;2024-03-08T08:08:10;99533.56;;;3.40;77.65
19624;BME280;9959;49.798;9.928;2024-03-08T08:10:38;99526.25;;;3.50;77.00
19624;BME280;9959;49.798;9.928;2024-03-08T08:13:05;99521.69;;;3.67;76.62
19624;BME280;9959;49.798;9.928;2024-03-08T08:15:33;99516.19;;;3.68;76.20
19624;BME280;9959;49.798;9.928;2024-03-08T08:18:01;99507.53;;;3.66;76.34
19624;BME280;9959;49.798;9.928;2024-03-08T08:20:29;99514.97;;;3.87;75.60
19624;BME280;9959;49.798;9.928;2024-03-08T08:22:59;99519.91;;;4.06;75.30
19624;BME280;9959;49.798;9.928;2024-03-08T08:25:26;99507.97;;;4.25;73.88
19624;BME280;9959;49.798;9.928;2024-03-08T08:27:53;99510.13;;;4.25;73.44
19624;BME280;9959;49.798;9.928;2024-03-08T08:30:20;99508.28;;;4.61;72.63
19624;BME280;9959;49.798;9.928;2024-03-08T08:32:47;99501.75;;;4.64;71.83
19624;BME280;9959;49.798;9.928;2024-03-08T08:35:16;99500.78;;;4.57;72.13
19624;BME280;9959;49.798;9.928;2024-03-08T08:37:45;99501.63;;;4.80;71.50
19624;BME280;9959;49.798;9.928;2024-03-08T08:40:12;99495.31;;;5.19;70.46
19624;BME280;9959;49.798;9.928;2024-03-08T08:42:42;99492.94;;;5.01;68.95
19624;BME280;9959;49.798;9.928;2024-03-08T08:45:10;99491.69;;;5.12;69.75
19624;BME280;9959;49.798;9.928;2024-03-08T08:47:44;99480.31;;;5.76;67.60
19624;BME280;9959;49.798;9.928;2024-03-08T08:50:12;99478.69;;;5.90;66.66
19624;BME280;9959;49.798;9.928;2024-03-08T08:52:40;99487.78;;;5.37;68.26
19624;BME280;9959;49.798;9.928;2024-03-08T08:55:07;99481.47;;;5.97;66.70
19624;BME280;9959;49.798;9.928;2024-03-08T08:57:34;99471.69;;;6.40;65.65
19624;BME280;9959;49.798;9.928;2024-03-08T09:00:03;99465.41;;;7.46;62.22
19624;BME280;9959;49.798;9.928;2024-03-08T09:02:34;99458.84;;;6.35;64.38
19624;BME280;9959;49.798;9.928;2024-03-08T09:05:02;99458.75;;;6.86;62.75
19624;BME280;9959;49.798;9.928;2024-03-08T09:07:29;99446.97;;;6.81;63.35
19624;BME280;9959;49.798;9.928;2024-03-08T09:09:57;99447.75;;;6.74;63.10
19624;BME280;9959;49.798;9.928;2024-03-08T09:12:29;99454.00;;;7.65;60.30
19624;BME280;9959;49.798;9.928;2024-03-08T09:14:56;99437.44;;;8.03;58.85
19624;BME280;9959;49.798;9.928;2024-03-08T09:17:28;99438.47;;;8.02;58.63
19624;BME280;9959;49.798;9.928;2024-03-08T09:19:57;99438.47;;;8.02;58.41
19624;BME280;9959;49.798;9.928;2024-03-08T09:22:24;99432.59;;;7.78;58.97
19624;BME280;9959;49.798;9.928;2024-03-08T09:24:51;99430.41;;;8.02;58.22
19624;BME280;9959;49.798;9.928;2024-03-08T09:27:18;99426.28;;;8.67;56.29
19624;BME280;9959;49.798;9.928;2024-03-08T09:29:46;99428.13;;;8.46;56.91
19624;BME280;9959;49.798;9.928;2024-03-08T09:32:13;99426.47;;;7.98;57.84
19624;BME280;9959;49.798;9.928;2024-03-08T09:34:40;99414.69;;;9.32;54.60
19624;BME280;9959;49.798;9.928;2024-03-08T09:37:07;99412.50;;;9.80;52.92
19624;BME280;9959;49.798;9.928;2024-03-08T09:39:35;99419.03;;;9.33;53.45
19624;BME280;9959;49.798;9.928;2024-03-08T09:42:03;99400.53;;;9.76;52.83
19624;BME280;9959;49.798;9.928;2024-03-08T09:44:30;99399.59;;;9.96;51.56
19624;BME280;9959;49.798;9.928;2024-03-08T09:46:58;99404.25;;;9.75;52.05
19624;BME280;9959;49.798;9.928;2024-03-08T09:49:26;99391.63;;;10.14;51.92
19624;BME280;9959;49.798;9.928;2024-03-08T09:51:53;99386.25;;;10.21;51.15
19624;BME280;9959;49.798;9.928;2024-03-08T09:54:20;99383.03;;;10.68;49.64
19624;BME280;9959;49.798;9.928;2024-03-08T09:56:51;99383.97;;;10.17;51.07
19624;BME280;9959;49.798;9.928;2024-03-08T09:59:19;99380.44;;;10.17;50.63
19624;BME280;9959;49.798;9.928;2024-03-08T10:02:14;99377.22;;;10.96;49.26
19624;BME280;9959;49.798;9.928;2024-03-08T10:04:42;99365.94;;;11.24;47.98
19624;BME280;9959;49.798;9.928;2024-03-08T10:07:09;99375.09;;;10.48;48.56
19624;BME280;9959;49.798;9.928;2024-03-08T10:09:36;99366.38;;;10.78;49.51
19624;BME280;9959;49.798;9.928;2024-03-08T10:12:04;99364.22;;;9.41;51.54
19624;BME280;9959;49.798;9.928;2024-03-08T10:14:32;99361.72;;;9.46;51.47
19624;BME280;9959;49.798;9.928;2024-03-08T10:16:59;99356.22;;;9.79;51.42
19624;BME280;9959;49.798;9.928;2024-03-08T10:19:27;99349.94;;;9.92;50.30
19624;BME280;9959;49.798;9.928;2024-03-08T10:21:57;99354.47;;;9.98;50.55
19624;BME280;9959;49.798;9.928;2024-03-08T10:24:26;99346.59;;;10.66;49.37
19624;BME280;9959;49.798;9.928;2024-03-08T10:26:58;99347.81;;;10.07;50.61
19624;BME280;9959;49.798;9.928;2024-03-08T10:29:25;99341.81;;;10.93;49.07
19624;BME280;9959;49.798;9.928;2024-03-08T10:31:52;99342.13;;;9.83;51.05
19624;BME280;9959;49.798;9.928;2024-03-08T10:34:19;99336.69;;;10.60;49.03
19624;BME280;9959;49.798;9.928;2024-03-08T10:36:50;99344.81;;;10.28;49.82
19624;BME280;9959;49.798;9.928;2024-03-08T10:39:23;99333.88;;;10.48;49.24
19624;BME280;9959;49.798;9.928;2024-03-08T10:41:57;99335.28;;;11.00;48.82
19624;BME280;9959;49.798;9.928;2024-03-08T10:44:36;99337.88;;;11.32;47.72
19624;BME280;9959;49.798;9.928;2024-03-08T10:47:27;99333.63;;;11.42;47.75
19624;BME280;9959;49.798;9.928;2024-03-08T10:50:11;99334.63;;;11.96;47.16
19624;BME280;9959;49.798;9.928;2024-03-08T10:52:45;99335.84;;;11.82;46.89
19624;BME280;9959;49.798;9.928;2024-03-08T10:55:16;99339.03;;;12.50;45.55
19624;BME280;9959;49.798;9.928;2024-03-08T10:57:44;99323.56;;;12.58;45.34
19624;BME280;9959;49.798;9.928;2024-03-08T11:00:12;99325.13;;;12.35;45.66
19624;BME280;9959;49.798;9.928;2024-03-08T11:02:42;99318.34;;;11.36;46.71
19624;BME280;9959;49.798;9.928;2024-03-08T11:05:10;99320.25;;;12.56;44.85
19624;BME280;9959;49.798;9.928;2024-03-08T11:07:42;99317.38;;;12.39;45.21
19624;BME280;9959;49.798;9.928;2024-03-08T11:10:19;99319.53;;;12.07;45.58
19624;BME280;9959;49.798;9.928;2024-03-08T11:12:47;99299.09;;;11.99;46.16
19624;BME280;9959;49.798;9.928;2024-03-08T11:15:15;99304.22;;;11.71;46.12
19624;BME280;9959;49.798;9.928;2024-03-08T11:17:49;99298.94;;;12.24;45.29
19624;BME280;9959;49.798;9.928;2024-03-08T11:20:18;99293.94;;;13.33;43.33
19624;BME280;9959;49.798;9.928;2024-03-08T11:22:59;99288.44;;;12.16;45.00
19624;BME280;9959;49.798;9.928;2024-03-08T11:25:36;99279.69;;;11.91;45.28
19624;BME280;9959;49.798;9.928;2024-03-08T11:28:18;99281.72;;;13.18;43.33
19624;BME280;9959;49.798;9.928;2024-03-08T11:33:32;99270.09;;;13.06;43.76
19624;BME280;9959;49.798;9.928;2024-03-08T11:38:42;99273.13;;;12.40;44.61
19624;BME280;9959;49.798;9.928;2024-03-08T11:41:10;99268.63;;;12.34;44.58
19624;BME280;9959;49.798;9.928;2024-03-08T11:43:45;99253.44;;;11.98;45.28
19624;BME280;9959;49.798;9.928;2024-03-08T11:46:14;99255.03;;;12.87;44.23
19624;BME280;9959;49.798;9.928;2024-03-08T11:48:43;99251.28;;;12.30;44.75
19624;BME280;9959;49.798;9.928;2024-03-08T11:51:11;99241.31;;;12.53;44.57
19624;BME280;9959;49.798;9.928;2024-03-08T11:53:42;99246.91;;;12.87;44.17
19624;BME280;9959;49.798;9.928;2024-03-08T11:56:14;99236.34;;;12.97;43.24
19624;BME280;9959;49.798;9.928;2024-03-08T11:58:55;99235.28;;;13.10;43.28
19624;BME280;9959;49.798;9.928;2024-03-08T12:01:24;99227.91;;;12.82;43.66
19624;BME280;9959;49.798;9.928;2024-03-08T12:03:59;99225.88;;;12.89;43.76
19624;BME280;9959;49.798;9.928;2024-03-08T12:06:38;99225.25;;;13.34;43.27
19624;BME280;9959;49.798;9.928;2024-03-08T12:09:10;99221.00;;;14.28;41.39
19624;BME280;9959;49.798;9.928;2024-03-08T12:11:37;99207.19;;;12.99;42.63
19624;BME280;9959;49.798;9.928;2024-03-08T12:14:22;99214.69;;;13.20;42.93
19624;BME280;9959;49.798;9.928;2024-03-08T12:16:50;99206.69;;;13.82;42.08
19624;BME280;9959;49.798;9.928;2024-03-08T12:19:19;99199.97;;;14.02;41.32
19624;BME280;9959;49.798;9.928;2024-03-08T12:21:46;99189.31;;;12.98;43.23
19624;BME280;9959;49.798;9.928;2024-03-08T12:24:17;99185.38;;;14.36;40.19
19624;BME280;9959;49.798;9.928;2024-03-08T12:27:17;99192.19;;;14.94;39.26
19624;BME280;9959;49.798;9.928;2024-03-08T12:29:59;99186.19;;;14.70;38.95
19624;BME280;9959;49.798;9.928;2024-03-08T12:32:29;99180.03;;;14.08;40.79
19624;BME280;9959;49.798;9.928;2024-03-08T12:34:56;99170.06;;;13.35;40.96
19624;BME280;9959;49.798;9.928;2024-03-08T12:37:32;99157.81;;;12.92;41.80
19624;BME280;9959;49.798;9.928;2024-03-08T12:40:00;99166.97;;;13.88;41.05
19624;BME280;9959;49.798;9.928;2024-03-08T12:42:30;99156.84;;;14.67;39.77
19624;BME280;9959;49.798;9.928;2024-03-08T12:44:58;99154.19;;;15.38;38.29
19624;BME280;9959;49.798;9.928;2024-03-08T12:47:26;99148.72;;;15.86;38.04
19624;BME280;9959;49.798;9.928;2024-03-08T12:49:55;99146.06;;;14.72;39.46
19624;BME280;9959;49.798;9.928;2024-03-08T12:52:22;99134.88;;;14.30;40.11
19624;BME280;9959;49.798;9.928;2024-03-08T12:54:50;99137.97;;;14.55;40.21
19624;BME280;9959;49.798;9.928;2024-03-08T12:57:17;99135.03;;;14.79;39.54
19624;BME280;9959;49.798;9.928;2024-03-08T12:59:45;99130.38;;;14.19;40.24
19624;BME280;9959;49.798;9.928;2024-03-08T13:02:12;99134.44;;;16.01;37.19
19624;BME280;9959;49.798;9.928;2024-03-08T13:04:39;99119.75;;;16.34;36.62
19624;BME280;9959;49.798;9.928;2024-03-08T13:07:07;99122.34;;;16.19;37.14
19624;BME280;9959;49.798;9.928;2024-03-08T13:09:34;99113.72;;;15.36;37.71
19624;BME280;9959;49.798;9.928;2024-03-08T13:12:04;99114.25;;;15.11;38.85
19624;BME280;9959;49.798;9.928;2024-03-08T13:14:32;99115.50;;;14.77;39.84
19624;BME280;9959;49.798;9.928;2024-03-08T13:17:02;99107.56;;;15.19;38.17
19624;BME280;9959;49.798;9.928;2024-03-08T13:19:30;99112.00;;;15.52;38.25
19624;BME280;9959;49.798;9.928;2024-03-08T13:21:57;99107.47;;;14.43;39.32
19624;BME280;9959;49.798;9.928;2024-03-08T13:24:25;99103.38;;;14.63;39.11
19624;BME280;9959;49.798;9.928;2024-03-08T13:26:52;99096.81;;;14.80;38.90
19624;BME280;9959;49.798;9.928;2024-03-08T13:29:19;99093.75;;;15.47;37.11
19624;BME280;9959;49.798;9.928;2024-03-08T13:31:48;99089.63;;;16.04;36.62